Time;durP1;ratioP1;P1;durP2;ratioP2;P2;SDS_P1;SDS_P2;PMS_P1;PMS_P2;Temp;Humidity;BMP_temperature;BMP_pressure;BME280_temperature;BME280_humidity;BME280_pressure;Samples;Min_cycle;Max_cycle;Signal;HPM_P1;HPM_P2
2023/05/14 00:00:21;;;;;;;26.70;14.65;;;;;;;8.91;76.21;100981.05;1701832;84;27365;-52
2023/05/14 00:02:49;;;;;;;18.98;14.15;;;;;;;8.88;76.36;100973.52;1701765;84;25436;-53
2023/05/14 00:05:16;;;;;;;19.35;13.65;;;;;;;8.83;76.04;100974.34;1701849;84;25631;-53
2023/05/14 00:07:42;;;;;;;17.32;13.45;;;;;;;8.79;75.62;100972.76;1701782;84;25494;-53
2023/05/14 00:10:10;;;;;;;16.90;13.22;;;;;;;8.75;76.12;100975.77;1701902;84;25417;-54
2023/05/14 00:12:36;;;;;;;16.25;12.85;;;;;;;8.73;75.56;100975.77;1701872;84;27345;-53
2023/05/14 00:15:04;;;;;;;18.17;12.37;;;;;;;8.68;75.30;100973.90;1701733;83;25701;-52
2023/05/14 00:17:30;;;;;;;18.82;13.05;;;;;;;8.66;74.94;100980.67;1701732;84;25661;-52
2023/05/14 00:19:58;;;;;;;21.75;12.15;;;;;;;8.60;74.91;100987.45;1701729;84;25407;-55
2023/05/14 00:22:24;;;;;;;18.85;13.38;;;;;;;8.47;75.72;100995.34;1701834;84;25610;-54
2023/05/14 00:24:50;;;;;;;18.23;13.90;;;;;;;8.31;74.83;100991.34;1701817;84;27442;-55
2023/05/14 00:27:17;;;;;;;20.23;13.62;;;;;;;8.25;74.79;100995.68;1701694;84;32700;-51
2023/05/14 00:29:44;;;;;;;21.07;14.07;;;;;;;8.20;75.10;100991.91;1701785;84;25561;-52
2023/05/14 00:32:10;;;;;;;21.93;12.90;;;;;;;8.18;74.95;100990.03;1701722;84;25568;-51
2023/05/14 00:34:37;;;;;;;18.65;13.53;;;;;;;8.18;75.37;100985.20;1701829;84;25467;-55
2023/05/14 00:37:03;;;;;;;21.30;14.23;;;;;;;8.17;75.11;100985.74;1701823;84;27301;-51
2023/05/14 00:39:29;;;;;;;19.70;14.60;;;;;;;8.16;75.17;100984.12;1701687;84;25454;-54
2023/05/14 00:41:55;;;;;;;20.12;13.65;;;;;;;8.16;75.21;100980.63;1701803;84;25593;-51
2023/05/14 00:44:21;;;;;;;19.05;13.43;;;;;;;8.12;75.12;100983.07;1701738;84;25635;-50
2023/05/14 00:46:48;;;;;;;22.55;13.95;;;;;;;8.08;75.48;100991.42;1701784;84;25404;-51
2023/05/14 00:49:15;;;;;;;25.35;14.40;;;;;;;8.05;75.83;100991.96;1701754;84;28163;-52
2023/05/14 00:51:45;;;;;;;21.40;14.73;;;;;;;8.01;75.85;100989.56;1701726;83;25615;-53
2023/05/14 00:54:11;;;;;;;23.80;17.65;;;;;;;7.97;76.04;100981.77;1701811;84;25510;-53
2023/05/14 00:56:37;;;;;;;25.75;17.60;;;;;;;7.95;76.09;100983.91;1701757;84;25438;-52
2023/05/14 00:59:04;;;;;;;30.72;21.97;;;;;;;7.93;76.31;100982.04;1701803;84;25488;-51
2023/05/14 01:01:30;;;;;;;34.43;24.92;;;;;;;7.91;76.48;100984.20;1701803;83;28025;-53
2023/05/14 01:03:57;;;;;;;34.63;24.63;;;;;;;7.88;76.39;100983.40;1701706;84;25639;-51
2023/05/14 01:06:30;;;;;;;28.77;22.10;;;;;;;7.84;76.58;100981.80;1701789;84;25482;-51
2023/05/14 01:09:16;;;;;;;37.83;20.72;;;;;;;7.82;76.82;100986.11;1701777;84;25576;-50
2023/05/14 01:12:11;;;;;;;28.60;18.00;;;;;;;7.81;76.83;100984.48;1701793;84;25477;-51
2023/05/14 01:14:55;;;;;;;23.42;16.35;;;;;;;7.79;77.25;100981.27;1701751;84;29503;-51
2023/05/14 01:17:26;;;;;;;24.20;16.35;;;;;;;7.77;77.35;100978.05;1701704;84;25424;-55
2023/05/14 01:19:54;;;;;;;25.30;16.45;;;;;;;7.76;77.62;100980.45;1690403;84;25418;-52
2023/05/14 01:22:20;;;;;;;20.82;16.32;;;;;;;7.72;77.54;100979.41;1688774;85;25865;-55
2023/05/14 01:24:47;;;;;;;22.77;16.48;;;;;;;7.70;77.24;100986.16;1688869;85;25627;-51
2023/05/14 01:27:26;;;;;;;21.82;15.72;;;;;;;7.66;77.57;100981.31;1688958;85;27589;-51
2023/05/14 01:29:58;;;;;;;22.65;16.42;;;;;;;7.64;77.37;100978.60;1686503;84;25571;-51
2023/05/14 01:32:26;;;;;;;25.20;16.52;;;;;;;7.61;77.55;100985.36;1655338;86;25442;-51
2023/05/14 01:34:57;;;;;;;20.23;16.95;;;;;;;7.59;77.72;100975.92;1656235;86;25622;-52
2023/05/14 01:37:25;;;;;;;26.62;16.95;;;;;;;7.57;77.81;100973.50;1636747;87;25461;-53
2023/05/14 01:39:52;;;;;;;24.27;17.12;;;;;;;7.55;78.01;100972.17;1636676;87;27878;-51
2023/05/14 01:42:19;;;;;;;26.68;17.45;;;;;;;7.50;77.72;100967.59;1636596;87;25709;-51
2023/05/14 01:44:46;;;;;;;25.30;18.60;;;;;;;7.47;77.90;100970.82;1636759;87;25652;-52
2023/05/14 01:47:12;;;;;;;22.90;17.80;;;;;;;7.43;77.88;100959.80;1636619;87;25445;-52
2023/05/14 01:49:39;;;;;;;20.15;15.10;;;;;;;7.40;77.85;100961.67;1636667;87;25595;-55
2023/05/14 01:52:07;;;;;;;20.37;14.75;;;;;;;7.37;77.94;100962.24;1630691;86;27328;-53
2023/05/14 01:54:33;;;;;;;18.70;14.83;;;;;;;7.34;78.04;100960.09;1641474;87;25603;-52
2023/05/14 01:56:59;;;;;;;18.70;14.23;;;;;;;7.33;77.86;100963.05;1655516;86;25653;-54
2023/05/14 01:59:28;;;;;;;19.70;14.95;;;;;;;7.29;78.04;100961.44;1641530;87;25917;-53
2023/05/14 02:01:53;;;;;;;17.52;14.60;;;;;;;7.26;77.90;100955.24;1655507;86;25439;-52
2023/05/14 02:04:20;;;;;;;18.25;14.07;;;;;;;7.22;77.97;100952.29;1641518;87;27405;-52
2023/05/14 02:06:46;;;;;;;20.00;15.38;;;;;;;7.19;77.69;100960.09;1655416;86;25463;-55
2023/05/14 02:09:12;;;;;;;19.23;14.43;;;;;;;7.13;77.56;100959.81;1641633;87;25642;-54
2023/05/14 02:11:38;;;;;;;26.45;15.32;;;;;;;7.06;77.59;100955.50;1655459;86;25631;-52
2023/05/14 02:14:05;;;;;;;24.23;17.30;;;;;;;7.01;77.62;100957.39;1641591;87;25689;-52
2023/05/14 02:16:31;;;;;;;19.65;15.03;;;;;;;6.97;77.81;100952.30;1655534;86;27345;-56
2023/05/14 02:18:58;;;;;;;20.17;14.87;;;;;;;6.90;77.68;100956.05;1647671;86;32797;-52
2023/05/14 02:21:24;;;;;;;17.92;14.58;;;;;;;6.87;77.31;100959.81;1663673;86;25525;-56
2023/05/14 02:23:50;;;;;;;21.57;14.78;;;;;;;6.84;77.00;100957.65;1646707;86;25462;-53
2023/05/14 02:26:16;;;;;;;22.48;15.40;;;;;;;6.81;77.68;100963.03;1663659;86;25454;-54
2023/05/14 02:28:42;;;;;;;25.45;14.58;;;;;;;6.78;77.89;100961.42;1646704;87;27349;-54
2023/05/14 02:31:09;;;;;;;21.07;15.65;;;;;;;6.71;77.82;100961.68;1663666;86;25490;-53
2023/05/14 02:33:35;;;;;;;21.90;16.20;;;;;;;6.66;77.97;100956.30;1646699;87;25624;-56
2023/05/14 02:36:01;;;;;;;23.57;15.08;;;;;;;6.62;77.86;100959.23;1663604;86;27547;-54
2023/05/14 02:38:27;;;;;;;20.27;15.30;;;;;;;6.57;78.14;100957.33;1646745;87;25604;-56
2023/05/14 02:40:53;;;;;;;22.45;15.32;;;;;;;6.53;78.20;100951.67;1663628;86;27351;-52
2023/05/14 02:43:20;;;;;;;20.50;14.83;;;;;;;6.49;78.44;100947.92;1646629;87;25582;-52
2023/05/14 02:45:46;;;;;;;21.97;15.28;;;;;;;6.49;78.52;100948.46;1663656;86;25474;-52
2023/05/14 02:48:12;;;;;;;24.32;17.70;;;;;;;6.47;78.72;100947.89;1646696;86;25670;-55
2023/05/14 02:50:38;;;;;;;24.02;17.45;;;;;;;6.36;78.74;100942.50;1663697;86;32355;-56
2023/05/14 02:53:04;;;;;;;25.95;18.07;;;;;;;6.36;78.74;100942.50;1646705;87;29495;-56
2023/05/14 02:55:30;;;;;;;26.95;18.35;;;;;;;6.33;79.18;100941.70;1663681;86;25464;-54
2023/05/14 02:57:57;;;;;;;25.17;18.10;;;;;;;6.34;79.46;100950.02;1646792;87;25486;-56
2023/05/14 03:00:23;;;;;;;23.95;17.02;;;;;;;6.34;79.50;100954.59;1663614;86;25479;-52
2023/05/14 03:02:49;;;;;;;24.05;16.62;;;;;;;6.32;79.48;100944.11;1646735;87;25315;-54
2023/05/14 03:05:15;;;;;;;22.00;16.07;;;;;;;6.33;79.54;100952.97;1663668;85;27328;-56
2023/05/14 03:07:41;;;;;;;23.95;15.25;;;;;;;6.34;79.74;100949.22;1646636;87;27166;-54
2023/05/14 03:10:09;;;;;;;21.25;15.25;;;;;;;6.34;79.36;100954.05;1663637;86;25426;-53
2023/05/14 03:12:36;;;;;;;23.35;16.17;;;;;;;6.36;79.69;100951.91;1646675;87;25450;-53
2023/05/14 03:15:02;;;;;;;21.45;15.65;;;;;;;6.34;79.61;100952.70;1663624;86;25480;-52
2023/05/14 03:17:28;;;;;;;21.25;15.68;;;;;;;6.34;79.41;100956.73;1646708;86;27299;-52
2023/05/14 03:19:55;;;;;;;23.75;16.20;;;;;;;6.34;79.14;100954.05;1658597;85;25826;-53
2023/05/14 03:22:21;;;;;;;20.20;15.35;;;;;;;6.34;79.18;100955.39;1641521;87;25502;-53
2023/05/14 03:24:47;;;;;;;24.10;16.15;;;;;;;6.35;79.42;100951.65;1652937;86;26072;-52
2023/05/14 03:27:13;;;;;;;25.30;16.70;;;;;;;6.34;79.69;100947.88;1641551;87;25506;-52
2023/05/14 03:29:39;;;;;;;25.85;16.93;;;;;;;6.36;79.94;100947.07;1655468;86;27318;-53
2023/05/14 03:32:06;;;;;;;20.72;16.02;;;;;;;6.36;79.98;100950.55;1641370;87;25474;-53
2023/05/14 03:34:33;;;;;;;21.35;16.05;;;;;;;6.38;80.39;100946.81;1655480;86;25464;-55
2023/05/14 03:37:00;;;;;;;22.30;15.55;;;;;;;6.40;80.38;100938.73;1641455;87;25422;-52
2023/05/14 03:39:26;;;;;;;23.55;17.45;;;;;;;6.40;80.55;100936.05;1655460;86;25612;-52
2023/05/14 03:41:53;;;;;;;24.02;16.30;;;;;;;6.43;80.81;100937.42;1641465;87;29693;-52
2023/05/14 03:44:19;;;;;;;21.82;17.10;;;;;;;6.47;80.77;100940.66;1655345;86;25918;-54
2023/05/14 03:46:45;;;;;;;21.33;16.40;;;;;;;6.51;80.91;100936.91;1641480;87;25653;-53
2023/05/14 03:49:11;;;;;;;26.15;17.82;;;;;;;6.55;81.21;100937.97;1655399;86;25466;-52
2023/05/14 03:51:37;;;;;;;23.12;16.95;;;;;;;6.57;81.09;100937.17;1641463;87;25440;-53
2023/05/14 03:54:04;;;;;;;25.00;17.65;;;;;;;6.61;80.88;100937.47;1655440;86;29557;-52
2023/05/14 03:56:30;;;;;;;21.95;17.80;;;;;;;6.65;80.90;100943.91;1641424;87;25551;-53
2023/05/14 03:58:56;;;;;;;24.30;17.67;;;;;;;6.67;81.24;100938.52;1655463;86;25423;-53
2023/05/14 04:01:23;;;;;;;21.00;16.82;;;;;;;6.73;81.33;100937.47;1641439;87;35192;-55
2023/05/14 04:03:49;;;;;;;22.13;17.10;;;;;;;6.85;81.36;100952.55;1655453;86;25674;-53
2023/05/14 04:06:15;;;;;;;23.40;17.12;;;;;;;6.83;81.53;100940.72;1641490;87;27352;-51
2023/05/14 04:08:41;;;;;;;24.23;17.20;;;;;;;6.88;81.79;100935.34;1655366;86;25587;-53
2023/05/14 04:11:07;;;;;;;25.82;16.95;;;;;;;6.95;81.81;100937.77;1641563;87;25441;-53
2023/05/14 04:13:33;;;;;;;26.23;18.05;;;;;;;7.02;82.23;100930.78;1655421;86;25589;-55
2023/05/14 04:16:01;;;;;;;25.12;18.17;;;;;;;7.11;82.56;100929.14;1617111;87;32359;-55
2023/05/14 04:18:27;;;;;;;23.18;17.42;;;;;;;7.21;82.73;100929.14;1641506;87;27387;-56
2023/05/14 04:20:53;;;;;;;24.87;18.60;;;;;;;7.31;83.03;100936.41;1661543;86;25566;-55
2023/05/14 04:23:20;;;;;;;26.97;17.87;;;;;;;7.41;83.19;100932.90;1665037;86;25508;-55
2023/05/14 04:25:46;;;;;;;26.90;17.30;;;;;;;7.52;83.49;100930.98;1664978;86;25453;-53
2023/05/14 04:28:12;;;;;;;26.25;15.55;;;;;;;7.60;83.57;100925.84;1665083;86;25432;-52
2023/05/14 04:30:39;;;;;;;23.80;15.85;;;;;;;7.70;83.75;100933.09;1665034;85;27595;-51
2023/05/14 04:33:05;;;;;;;23.00;15.03;;;;;;;7.80;83.94;100928.22;1664924;86;25654;-52
2023/05/14 04:35:32;;;;;;;93.15;85.85;;;;;;;7.90;84.00;100927.36;1665024;86;25638;-53
2023/05/14 04:37:58;;;;;;;20.80;14.28;;;;;;;7.96;84.02;100928.41;1664981;86;25411;-55
2023/05/14 04:40:24;;;;;;;40.70;36.65;;;;;;;8.07;84.42;100930.55;1665087;85;25433;-52
2023/05/14 04:42:50;;;;;;;34.35;31.07;;;;;;;8.17;84.76;100930.50;1665068;86;28052;-52
2023/05/14 04:45:17;;;;;;;94.90;87.75;;;;;;;8.27;84.38;100931.52;1664919;86;25824;-53
2023/05/14 04:47:45;;;;;;;26.80;15.38;;;;;;;8.35;83.98;100934.98;1665070;85;25571;-54
2023/05/14 04:50:12;;;;;;;25.40;17.20;;;;;;;8.45;84.03;100939.00;1664979;86;26082;-55
2023/05/14 04:52:39;;;;;;;65.87;60.48;;;;;;;8.57;83.78;100937.31;1665016;86;25600;-53
2023/05/14 04:55:07;;;;;;;19.55;13.98;;;;;;;8.69;83.95;100936.97;1665045;86;27430;-51
2023/05/14 04:57:33;;;;;;;91.15;84.30;;;;;;;8.81;83.87;100933.37;1665100;86;25597;-53
2023/05/14 04:59:59;;;;;;;94.45;87.15;;;;;;;8.91;83.87;100930.59;1665123;85;25647;-53
2023/05/14 05:02:25;;;;;;;93.03;86.02;;;;;;;9.05;83.85;100927.25;1665185;86;25585;-53
2023/05/14 05:04:52;;;;;;;94.03;86.92;;;;;;;9.18;83.56;100933.34;1665165;86;25413;-52
2023/05/14 05:07:18;;;;;;;92.33;85.55;;;;;;;9.32;83.42;100932.14;1665182;86;27394;-55
2023/05/14 05:09:44;;;;;;;93.05;86.17;;;;;;;9.47;83.33;100925.23;1665063;86;25434;-56
2023/05/14 05:12:10;;;;;;;91.30;84.05;;;;;;;9.62;82.90;100926.15;1665208;86;25596;-53
2023/05/14 05:14:36;;;;;;;46.55;42.48;;;;;;;9.78;82.80;100922.20;1665116;85;25486;-52
2023/05/14 05:17:03;;;;;;;23.38;14.30;;;;;;;9.96;81.88;100922.00;1665161;86;25658;-52
2023/05/14 05:19:29;;;;;;;23.18;13.83;;;;;;;10.17;82.17;100928.49;1665090;85;27334;-53
2023/05/14 05:21:56;;;;;;;95.47;88.40;;;;;;;10.34;82.34;100927.47;1665124;86;25489;-52
2023/05/14 05:24:22;;;;;;;20.32;13.58;;;;;;;10.52;82.10;100936.70;1655570;86;25499;-54
2023/05/14 05:26:49;;;;;;;92.12;85.32;;;;;;;10.72;81.64;100932.86;1665066;86;25690;-53
2023/05/14 05:29:15;;;;;;;93.58;86.53;;;;;;;10.93;81.50;100929.31;1655570;86;25657;-52
2023/05/14 05:31:41;;;;;;;27.17;24.37;;;;;;;11.19;80.88;100928.87;1666581;84;27339;-52
2023/05/14 05:34:07;;;;;;;91.25;84.42;;;;;;;11.47;80.79;100927.00;1696592;84;25689;-52
2023/05/14 05:36:34;;;;;;;91.70;84.25;;;;;;;11.74;79.49;100920.00;1696620;84;25510;-52
2023/05/14 05:39:01;;;;;;;90.22;83.42;;;;;;;12.04;79.24;100928.11;1696661;84;25621;-53
2023/05/14 05:41:28;;;;;;;87.37;81.08;;;;;;;12.28;78.30;100924.36;1696591;84;25403;-53
2023/05/14 05:43:55;;;;;;;87.40;81.28;;;;;;;12.57;77.62;100924.53;1696588;84;29503;-52
2023/05/14 05:46:22;;;;;;;87.97;81.85;;;;;;;12.82;77.03;100920.39;1696509;84;25864;-54
2023/05/14 05:48:49;;;;;;;86.45;80.07;;;;;;;13.11;76.35;100924.04;1696566;84;25201;-53
2023/05/14 05:51:16;;;;;;;87.88;81.72;;;;;;;13.38;75.33;100923.63;1696503;84;26493;-53
2023/05/14 05:53:42;;;;;;;24.72;14.93;;;;;;;13.62;74.71;100926.80;1696558;84;25472;-56
2023/05/14 05:56:09;;;;;;;86.92;80.85;;;;;;;13.86;74.28;100923.42;1696620;84;27359;-53
2023/05/14 05:58:38;;;;;;;87.33;81.10;;;;;;;14.07;74.09;100921.72;1696434;84;25412;-53
2023/05/14 06:01:04;;;;;;;87.90;81.50;;;;;;;14.30;73.24;100920.23;1696587;84;25502;-54
2023/05/14 06:03:30;;;;;;;13.85;9.43;;;;;;;14.49;71.38;100922.09;1696548;84;25780;-55
2023/05/14 06:05:56;;;;;;;84.22;78.22;;;;;;;14.68;70.16;100927.25;1696595;84;32394;-53
2023/05/14 06:08:22;;;;;;;85.17;79.12;;;;;;;14.84;69.81;100926.75;1696489;84;27380;-56
2023/05/14 06:10:48;;;;;;;16.55;13.00;;;;;;;15.03;68.72;100922.31;1696502;84;25529;-54
2023/05/14 06:13:14;;;;;;;20.70;17.10;;;;;;;15.20;68.72;100923.62;1696530;84;25624;-52
2023/05/14 06:15:40;;;;;;;88.90;82.47;;;;;;;15.37;67.39;100926.86;1696511;84;34862;-52
2023/05/14 06:18:07;;;;;;;86.10;80.17;;;;;;;15.55;67.35;100922.73;1696623;84;25568;-54
2023/05/14 06:20:33;;;;;;;85.45;79.25;;;;;;;15.74;66.74;100927.78;1693358;84;27323;-54
2023/05/14 06:23:00;;;;;;;16.70;14.18;;;;;;;15.91;65.31;100920.89;1688725;85;25962;-53
2023/05/14 06:25:26;;;;;;;14.98;8.28;;;;;;;16.11;63.15;100918.54;1688836;84;25504;-56
2023/05/14 06:27:52;;;;;;;15.35;7.42;;;;;;;16.33;64.19;100920.95;1688402;85;25686;-54
2023/05/14 06:30:18;;;;;;;16.02;7.83;;;;;;;16.55;62.86;100922.55;1687282;85;25709;-54
2023/05/14 06:32:45;;;;;;;12.68;7.40;;;;;;;16.76;60.73;100911.58;1687145;85;28099;-54
2023/05/14 06:35:11;;;;;;;14.10;7.70;;;;;;;16.98;61.84;100920.58;1687819;85;25889;-54
2023/05/14 06:37:37;;;;;;;14.93;7.28;;;;;;;17.23;60.96;100912.42;1687481;85;25623;-53
2023/05/14 06:40:07;;;;;;;14.50;6.92;;;;;;;17.49;60.55;100919.77;1687692;85;25745;-54
2023/05/14 06:42:33;;;;;;;13.70;7.10;;;;;;;17.70;58.77;100921.02;1685448;85;25704;-53
2023/05/14 06:44:59;;;;;;;12.28;6.90;;;;;;;17.92;57.05;100915.67;1687961;84;27397;-53
2023/05/14 06:47:25;;;;;;;10.65;6.28;;;;;;;18.14;57.58;100911.45;1688522;84;25709;-53
2023/05/14 06:49:52;;;;;;;14.45;7.87;;;;;;;18.40;56.86;100915.14;1688802;85;25656;-55
2023/05/14 06:52:18;;;;;;;14.65;7.42;;;;;;;18.67;56.42;100920.41;1688759;85;25667;-55
2023/05/14 06:54:44;;;;;;;10.40;7.17;;;;;;;18.98;56.13;100921.08;1688790;85;25609;-53
2023/05/14 06:57:10;;;;;;;9.45;6.03;;;;;;;19.26;54.99;100918.88;1688829;84;27336;-53
2023/05/14 06:59:36;;;;;;;9.48;6.22;;;;;;;19.55;53.79;100921.76;1688725;84;25742;-53
2023/05/14 07:02:02;;;;;;;12.65;6.40;;;;;;;19.73;51.64;100917.27;1688815;84;25481;-56
2023/05/14 07:04:28;;;;;;;15.50;6.78;;;;;;;19.94;52.55;100915.06;1688736;85;25592;-53
2023/05/14 07:06:54;;;;;;;14.23;6.85;;;;;;;20.21;51.72;100914.45;1688807;85;25448;-51
2023/05/14 07:09:21;;;;;;;10.35;6.67;;;;;;;20.43;50.51;100915.69;1688806;85;27218;-53
2023/05/14 07:11:48;;;;;;;8.38;5.70;;;;;;;20.60;49.75;100911.72;1688701;85;25577;-55
2023/05/14 07:14:14;;;;;;;10.88;5.67;;;;;;;20.85;48.47;100903.99;1688748;85;25581;-56
2023/05/14 07:16:41;;;;;;;8.70;5.17;;;;;;;21.05;48.23;100895.13;1663120;85;25713;-56
2023/05/14 07:19:08;;;;;;;11.10;4.92;;;;;;;21.32;45.27;100906.17;1688786;85;25624;-56
2023/05/14 07:21:35;;;;;;;9.65;4.92;;;;;;;21.53;44.24;100906.56;1693942;84;27379;-55
2023/05/14 07:24:01;;;;;;;8.65;5.08;;;;;;;21.64;43.67;100902.63;1696437;84;25612;-54
2023/05/14 07:26:27;;;;;;;10.82;4.90;;;;;;;21.81;44.42;100896.59;1696535;84;25636;-55
2023/05/14 07:28:53;;;;;;;6.62;4.37;;;;;;;21.99;41.35;100889.94;1696637;84;25609;-55
2023/05/14 07:31:19;;;;;;;11.08;4.60;;;;;;;22.17;40.28;100901.80;1696628;84;25425;-54
2023/05/14 07:33:45;;;;;;;8.08;4.00;;;;;;;22.22;39.99;100897.91;1696560;84;27342;-55
2023/05/14 07:36:12;;;;;;;11.40;4.17;;;;;;;22.26;38.39;100897.39;1696402;84;26203;-56
2023/05/14 07:38:38;;;;;;;8.40;4.70;;;;;;;22.31;36.63;100898.47;1666508;84;25744;-57
2023/05/14 07:41:06;;;;;;;6.78;4.25;;;;;;;22.32;37.21;100889.02;1696519;84;27958;-56
2023/05/14 07:43:33;;;;;;;11.90;4.47;;;;;;;22.36;36.87;100890.66;1696627;84;25396;-56
2023/05/14 07:45:59;;;;;;;8.78;3.85;;;;;;;22.40;35.39;100880.27;1696477;84;27333;-57
2023/05/14 07:48:26;;;;;;;5.60;4.30;;;;;;;22.47;37.24;100881.13;1696368;84;25685;-56
2023/05/14 07:50:53;;;;;;;7.75;4.00;;;;;;;22.59;33.67;100884.80;1696507;84;25633;-56
2023/05/14 07:53:20;;;;;;;6.25;3.87;;;;;;;22.61;35.29;100890.17;1696425;84;25717;-53
2023/05/14 07:55:50;;;;;;;9.58;4.42;;;;;;;22.70;35.45;100877.45;1696493;84;25576;-53
2023/05/14 07:58:17;;;;;;;13.53;4.08;;;;;;;22.93;37.12;100873.95;1696516;84;27379;-53
2023/05/14 08:00:43;;;;;;;7.12;4.15;;;;;;;23.39;35.75;100879.67;1696384;83;25387;-53
2023/05/14 08:03:09;;;;;;;7.15;4.28;;;;;;;23.55;35.43;100871.13;1696496;84;25538;-54
2023/05/14 08:05:36;;;;;;;8.98;3.98;;;;;;;23.71;34.59;100868.67;1696420;84;25717;-55
2023/05/14 08:08:03;;;;;;;6.83;3.85;;;;;;;24.02;35.29;100875.00;1696501;84;25492;-54
2023/05/14 08:10:31;;;;;;;6.58;3.80;;;;;;;24.30;32.83;100867.23;1696480;84;27304;-54
2023/05/14 08:12:57;;;;;;;5.85;3.72;;;;;;;24.38;33.72;100871.58;1696336;84;25760;-54
2023/05/14 08:15:23;;;;;;;5.65;3.65;;;;;;;24.57;33.85;100869.91;1696491;84;25402;-55
2023/05/14 08:17:49;;;;;;;9.13;3.95;;;;;;;24.82;33.05;100867.77;1696476;84;25708;-56
2023/05/14 08:20:16;;;;;;;6.90;3.42;;;;;;;24.92;33.14;100857.31;1696404;84;25455;-54
2023/05/14 08:22:43;;;;;;;8.05;4.00;;;;;;;25.27;33.10;100855.78;1688849;85;27399;-56
2023/05/14 08:25:11;;;;;;;6.55;3.60;;;;;;;25.63;33.00;100849.41;1688710;85;25695;-56
2023/05/14 08:27:39;;;;;;;4.80;3.45;;;;;;;25.99;32.68;100844.58;1688754;84;25498;-57
2023/05/14 08:30:09;;;;;;;10.88;4.40;;;;;;;26.29;30.47;100846.05;1688700;85;27838;-56
2023/05/14 08:32:37;;;;;;;7.35;4.00;;;;;;;26.37;30.94;100839.84;1688768;85;25425;-55
2023/05/14 08:35:05;;;;;;;7.12;4.10;;;;;;;26.65;31.42;100841.09;1688726;84;27298;-57
2023/05/14 08:37:32;;;;;;;7.10;3.90;;;;;;;26.72;30.48;100845.03;1688787;85;25624;-53
2023/05/14 08:39:59;;;;;;;7.55;4.28;;;;;;;26.87;27.91;100849.86;1688750;84;25606;-56
2023/05/14 08:42:28;;;;;;;6.22;3.87;;;;;;;26.78;29.71;100846.97;1688743;84;25677;-53
2023/05/14 08:45:05;;;;;;;8.23;4.12;;;;;;;26.91;29.92;100844.48;1688746;85;25521;-56
2023/05/14 08:47:34;;;;;;;7.85;4.22;;;;;;;27.23;29.76;100838.50;1688834;85;27337;-56
2023/05/14 08:50:07;;;;;;;5.05;3.98;;;;;;;27.33;29.39;100832.08;1688763;85;25634;-54
2023/05/14 08:52:35;;;;;;;6.65;3.80;;;;;;;27.45;29.09;100834.34;1688811;85;25420;-57
2023/05/14 08:55:07;;;;;;;10.53;4.37;;;;;;;27.57;28.41;100831.64;1688969;85;27781;-56
2023/05/14 08:57:35;;;;;;;7.28;4.08;;;;;;;27.58;27.85;100842.92;1688816;85;25641;-57
2023/05/14 09:00:10;;;;;;;5.83;3.62;;;;;;;27.56;27.70;100830.83;1688720;85;27343;-55
2023/05/14 09:02:39;;;;;;;5.95;3.62;;;;;;;27.50;27.24;100838.66;1688450;84;25649;-55
2023/05/14 09:05:09;;;;;;;5.42;3.72;;;;;;;27.39;27.44;100831.80;1663356;85;25634;-57
2023/05/14 09:07:37;;;;;;;6.22;4.00;;;;;;;27.50;27.01;100826.16;1688721;84;26234;-58
2023/05/14 09:10:07;;;;;;;5.50;3.15;;;;;;;27.60;27.27;100831.39;1688898;85;25616;-56
2023/05/14 09:12:34;;;;;;;5.10;3.33;;;;;;;27.73;26.63;100819.33;1688727;85;28112;-56
2023/05/14 09:15:03;;;;;;;5.33;3.12;;;;;;;27.83;26.85;100825.20;1688663;85;26308;-58
2023/05/14 09:17:32;;;;;;;6.28;3.37;;;;;;;27.93;26.47;100827.87;1688386;85;25941;-57
2023/05/14 09:20:00;;;;;;;4.05;3.12;;;;;;;27.94;25.92;100828.06;1687932;85;26041;-57
2023/05/14 09:22:32;;;;;;;8.90;3.67;;;;;;;27.87;25.70;100818.98;1688556;84;25588;-57
2023/05/14 09:25:08;;;;;;;9.85;3.45;;;;;;;27.71;25.31;100819.58;1688754;85;27407;-57
2023/05/14 09:27:36;;;;;;;5.22;3.65;;;;;;;27.53;24.87;100838.62;1688687;85;25761;-58
2023/05/14 09:30:13;;;;;;;5.12;3.20;;;;;;;27.05;24.56;100813.05;1688739;84;25480;-58
2023/05/14 09:32:44;;;;;;;4.05;3.42;;;;;;;26.86;25.49;100810.84;1688767;85;25670;-58
2023/05/14 09:35:16;;;;;;;4.95;3.08;;;;;;;27.06;25.93;100816.63;1663074;85;25520;-60
2023/05/14 09:37:48;;;;;;;6.78;3.45;;;;;;;27.20;25.33;100804.77;1688754;85;27347;-57
2023/05/14 09:40:20;;;;;;;8.63;3.15;;;;;;;27.50;24.94;100819.22;1688723;84;25528;-58
2023/05/14 09:42:49;;;;;;;8.43;3.37;;;;;;;27.31;24.92;100796.39;1688813;85;25609;-57
2023/05/14 09:45:16;;;;;;;;;;;;;;;27.49;24.81;100812.07;1691371;84;25697;-59
2023/05/14 09:47:44;;;;;;;7.80;2.77;;;;;;;27.44;24.50;100798.03;1688888;85;25437;-58
2023/05/14 09:50:10;;;;;;;4.25;2.72;;;;;;;27.44;24.27;100806.97;1688825;84;29548;-58
2023/05/14 09:52:39;;;;;;;3.70;2.85;;;;;;;27.39;24.06;100802.03;1688726;85;26066;-59
2023/05/14 09:55:08;;;;;;;4.60;3.02;;;;;;;27.50;24.56;100793.61;1663351;85;25615;-58
2023/05/14 09:57:36;;;;;;;4.92;3.12;;;;;;;27.82;25.32;100804.16;1688863;85;25641;-58
2023/05/14 10:00:07;;;;;;;3.45;2.50;;;;;;;28.20;24.68;100802.73;1688874;85;25654;-57
2023/05/14 10:02:40;;;;;;;6.95;3.47;;;;;;;28.50;25.07;100807.44;1688915;84;27378;-57
2023/05/14 10:05:10;;;;;;;4.92;2.90;;;;;;;28.65;23.82;100808.83;1688808;84;26209;-58
2023/05/14 10:07:43;;;;;;;4.33;3.10;;;;;;;28.64;23.82;100784.20;1688827;84;25503;-58
2023/05/14 10:10:15;;;;;;;6.97;2.90;;;;;;;28.88;22.62;100787.80;1688132;85;25623;-59
2023/05/14 10:12:54;;;;;;;6.03;2.50;;;;;;;28.87;22.87;100782.05;1688897;85;25573;-59
2023/05/14 10:15:40;;;;;;;7.80;3.00;;;;;;;28.94;23.19;100785.31;1688577;85;27464;-58
2023/05/14 10:18:15;;;;;;;4.05;2.42;;;;;;;29.18;23.05;100772.19;1688787;84;25782;-58
2023/05/14 10:20:50;;;;;;;4.83;2.70;;;;;;;29.11;22.11;100768.12;1688852;85;25522;-59
2023/05/14 10:23:20;;;;;;;5.87;3.10;;;;;;;29.23;21.62;100774.48;1686700;84;26639;-56
2023/05/14 10:25:48;;;;;;;4.45;2.55;;;;;;;29.05;21.41;100771.39;1686873;85;25431;-58
2023/05/14 10:28:14;;;;;;;3.98;2.87;;;;;;;29.18;22.22;100758.27;1686874;85;27380;-58
2023/05/14 10:30:49;;;;;;;5.45;2.58;;;;;;;29.43;21.73;100770.33;1686824;85;25417;-58
2023/05/14 10:33:17;;;;;;;4.15;2.62;;;;;;;29.27;21.28;100766.86;1686833;85;25461;-57
2023/05/14 10:36:02;;;;;;;4.92;2.70;;;;;;;28.86;21.82;100759.00;1686860;85;25671;-58
2023/05/14 10:38:33;;;;;;;5.67;2.67;;;;;;;28.94;22.72;100744.34;1686914;85;25650;-58
2023/05/14 10:41:13;;;;;;;2.90;2.30;;;;;;;29.10;22.13;100750.63;1686901;85;27374;-58
2023/05/14 10:43:43;;;;;;;5.30;2.72;;;;;;;28.89;21.71;100750.39;1686776;84;27053;-58
2023/05/14 10:46:13;;;;;;;4.83;2.87;;;;;;;28.61;21.66;100746.89;1686862;85;25422;-57
2023/05/14 10:48:43;;;;;;;5.15;2.75;;;;;;;27.96;22.24;100756.77;1686826;85;25434;-57
2023/05/14 10:51:12;;;;;;;5.12;2.70;;;;;;;27.90;22.75;100757.78;1661316;85;25538;-57
2023/05/14 10:53:42;;;;;;;6.83;2.85;;;;;;;27.95;22.79;100760.73;1686810;85;27964;-55
2023/05/14 10:56:12;;;;;;;4.70;2.80;;;;;;;27.56;23.23;100750.27;1661287;85;25421;-57
2023/05/14 10:58:43;;;;;;;8.05;3.02;;;;;;;27.01;23.11;100735.97;1661334;85;25657;-56
2023/05/14 11:01:13;;;;;;;5.53;3.10;;;;;;;26.62;23.99;100737.07;1686837;85;25651;-58
2023/05/14 11:03:44;;;;;;;5.70;2.83;;;;;;;26.42;23.81;100729.28;1686968;85;25455;-55
2023/05/14 11:06:14;;;;;;;5.10;2.92;;;;;;;26.65;24.60;100726.58;1686869;85;27974;-53
2023/05/14 11:08:45;;;;;;;5.87;2.70;;;;;;;26.91;24.56;100726.53;1686924;85;25642;-57
2023/05/14 11:11:11;;;;;;;4.75;2.80;;;;;;;27.25;23.35;100725.02;1686943;85;25583;-54
2023/05/14 11:13:37;;;;;;;3.05;2.25;;;;;;;27.48;24.25;100719.63;1686862;85;25568;-55
2023/05/14 11:16:05;;;;;;;3.95;2.65;;;;;;;27.75;22.16;100717.48;1686858;85;25627;-51
2023/05/14 11:18:37;;;;;;;6.45;2.47;;;;;;;27.62;22.87;100720.05;1686852;85;27996;-50
2023/05/14 11:21:02;;;;;;;4.50;2.72;;;;;;;27.63;23.21;100706.33;1686496;85;25462;-57